Time;durP1;ratioP1;P1;durP2;ratioP2;P2;SDS_P1;SDS_P2;PMS_P1;PMS_P2;Temp;Humidity;BMP_temperature;BMP_pressure;BME280_temperature;BME280_humidity;BME280_pressure;Samples;Min_cycle;Max_cycle;Signal;HPM_P1;HPM_P2
2021/05/19 00:01:29;;;;;;;12.43;10.00;;;;;;;-144.99;nan;52374.72;4993601;28;20253;-67
2021/05/19 00:03:55;;;;;;;13.47;11.10;;;;;;;-144.99;nan;52421.59;4993260;28;20199;-68
2021/05/19 00:06:22;;;;;;;11.20;9.53;;;;;;;-144.99;nan;52415.47;4993601;28;20223;-67
2021/05/19 00:08:50;;;;;;;13.30;10.63;;;;;;;-144.99;nan;52431.78;4991690;28;20219;-65
2021/05/19 00:11:20;;;;;;;11.37;9.27;;;;;;;-144.99;nan;52419.56;4993211;28;20708;-65
2021/05/19 00:13:50;;;;;;;14.23;11.20;;;;;;;-144.99;nan;52395.09;4991739;28;20689;-65
2021/05/19 00:16:20;;;;;;;11.63;10.47;;;;;;;-144.99;nan;52415.47;4992678;28;20238;-65
2021/05/19 00:18:46;;;;;;;13.20;10.93;;;;;;;-144.99;nan;52399.19;4992744;28;20215;-65
2021/05/19 00:21:15;;;;;;;12.17;9.50;;;;;;;-144.99;nan;52452.16;4992999;28;20203;-65
2021/05/19 00:23:44;;;;;;;11.17;9.97;;;;;;;-144.99;nan;52435.88;4992142;28;20204;-65
2021/05/19 00:26:13;;;;;;;16.37;11.53;;;;;;;-144.99;nan;52427.72;4992767;28;20222;-61
2021/05/19 00:28:44;;;;;;;11.20;9.93;;;;;;;-144.99;nan;52407.31;4992512;28;20211;-61
2021/05/19 00:31:17;;;;;;;14.47;11.03;;;;;;;-144.99;nan;52391.03;4992569;28;20659;-60
2021/05/19 00:33:52;;;;;;;14.13;11.57;;;;;;;-144.99;nan;52403.25;4990272;28;20716;-61
2021/05/19 00:36:21;;;;;;;15.20;11.60;;;;;;;-144.99;nan;52431.78;4988102;28;20227;-64
2021/05/19 00:38:49;;;;;;;14.50;11.53;;;;;;;-144.99;nan;52409.38;4992285;28;20567;-62
2021/05/19 00:41:19;;;;;;;16.27;13.03;;;;;;;-144.99;nan;52403.25;4992255;28;20208;-65
2021/05/19 00:43:45;;;;;;;17.50;13.90;;;;;;;-144.99;nan;52407.31;4991621;28;20209;-64
2021/05/19 00:46:15;;;;;;;13.93;11.93;;;;;;;-144.99;nan;52366.56;4992052;28;20206;-64
2021/05/19 00:48:44;;;;;;;15.73;13.60;;;;;;;-144.99;nan;52399.19;4992624;28;20212;-64
2021/05/19 00:51:10;;;;;;;14.40;11.77;;;;;;;-144.99;nan;52374.72;4992633;28;20207;-65
2021/05/19 00:53:36;;;;;;;14.53;12.53;;;;;;;-144.99;nan;52423.63;4990784;28;20212;-61
2021/05/19 00:56:05;;;;;;;15.80;12.93;;;;;;;-144.99;nan;52403.25;4992262;28;20660;-61
2021/05/19 00:58:31;;;;;;;15.57;13.87;;;;;;;-144.99;nan;52419.56;4991560;28;20199;-61
2021/05/19 01:00:57;;;;;;;14.70;13.07;;;;;;;-144.99;nan;52407.31;4992267;28;20238;-62
2021/05/19 01:03:24;;;;;;;17.17;12.80;;;;;;;-144.99;nan;52478.66;4991952;28;20203;-62
2021/05/19 01:05:53;;;;;;;15.70;12.73;;;;;;;-144.99;nan;52439.94;4990921;28;20276;-61
2021/05/19 01:11:06;;;;;;;15.60;12.40;;;;;;;-144.99;nan;52388.97;4992576;28;20327;-61
2021/05/19 01:13:33;;;;;;;15.87;13.53;;;;;;;-144.99;nan;52427.72;4991362;28;20591;-62
2021/05/19 01:16:02;;;;;;;14.43;12.97;;;;;;;-144.99;nan;52378.78;4991583;28;20227;-63
2021/05/19 01:18:32;;;;;;;13.63;11.77;;;;;;;-144.99;nan;52407.31;4989807;28;20199;-63
2021/05/19 01:21:02;;;;;;;15.47;12.17;;;;;;;-144.99;nan;52415.47;4992617;28;20219;-65
2021/05/19 01:23:30;;;;;;;14.03;11.47;;;;;;;-144.99;nan;52388.97;4991822;28;20238;-66
2021/05/19 01:26:07;;;;;;;14.57;11.63;;;;;;;-144.99;nan;52403.25;4990580;28;20270;-64
2021/05/19 01:28:36;;;;;;;14.77;11.93;;;;;;;-144.99;nan;52413.44;4989010;28;20219;-64
2021/05/19 01:31:03;;;;;;;14.00;12.50;;;;;;;-144.99;nan;52399.19;4991651;28;20200;-64
2021/05/19 01:33:32;;;;;;;14.60;11.90;;;;;;;-144.99;nan;52378.78;4990439;28;20207;-63
2021/05/19 01:35:58;;;;;;;15.13;13.20;;;;;;;-144.99;nan;52435.88;4987131;28;20220;-65
2021/05/19 01:38:26;;;;;;;15.07;12.33;;;;;;;-144.99;nan;52411.41;4990668;28;20203;-64
2021/05/19 01:40:59;;;;;;;16.93;15.20;;;;;;;-144.99;nan;52374.72;4991979;28;20203;-64
2021/05/19 01:43:29;;;;;;;18.33;13.23;;;;;;;-144.99;nan;52399.19;4991453;28;20217;-64
2021/05/19 01:45:58;;;;;;;14.87;12.40;;;;;;;-144.99;nan;52399.19;4989951;28;20269;-60
2021/05/19 01:48:29;;;;;;;14.57;12.47;;;;;;;-144.99;nan;52423.63;4991571;28;20212;-62
2021/05/19 01:51:01;;;;;;;16.00;11.63;;;;;;;-144.99;nan;52399.19;4991748;28;20273;-62
2021/05/19 01:53:28;;;;;;;14.03;12.07;;;;;;;-144.99;nan;52439.94;4990646;28;20239;-62
2021/05/19 01:55:59;;;;;;;17.20;13.10;;;;;;;-144.99;nan;52425.66;4990546;28;20291;-62
2021/05/19 01:58:26;;;;;;;16.33;13.10;;;;;;;-144.99;nan;52386.94;4990557;28;20295;-62
2021/05/19 02:00:53;;;;;;;15.57;12.80;;;;;;;-144.99;nan;52403.25;4991052;28;20595;-62
2021/05/19 02:03:20;;;;;;;13.87;12.40;;;;;;;-144.99;nan;52391.03;4988452;28;20208;-62
2021/05/19 02:05:49;;;;;;;13.13;11.50;;;;;;;-144.99;nan;52393.06;4990961;28;20207;-60
2021/05/19 02:08:18;;;;;;;13.37;11.53;;;;;;;-144.99;nan;52403.25;4990676;28;20227;-59
2021/05/19 02:10:44;;;;;;;14.20;12.03;;;;;;;-144.99;nan;52403.25;4990822;28;20207;-60
2021/05/19 02:13:19;;;;;;;13.93;11.87;;;;;;;-144.99;nan;52423.63;4988027;28;20353;-60
2021/05/19 02:15:45;;;;;;;17.63;13.27;;;;;;;-144.99;nan;52388.97;4990173;28;20634;-61
2021/05/19 02:18:11;;;;;;;13.97;12.07;;;;;;;-144.99;nan;52382.88;4990790;28;20250;-61
2021/05/19 02:20:37;;;;;;;12.67;11.13;;;;;;;-144.99;nan;52386.94;4991672;28;20230;-61
2021/05/19 02:23:05;;;;;;;14.43;12.97;;;;;;;-144.99;nan;52370.63;4988847;28;20263;-62
2021/05/19 02:25:40;;;;;;;14.23;12.03;;;;;;;-144.99;nan;52419.56;4990853;28;20202;-63
2021/05/19 02:28:06;;;;;;;14.13;12.13;;;;;;;-144.99;nan;52403.25;4990530;28;20219;-62
2021/05/19 02:30:36;;;;;;;14.33;12.07;;;;;;;-144.99;nan;52439.94;4991075;28;20263;-61
2021/05/19 02:33:11;;;;;;;12.77;11.47;;;;;;;-144.99;nan;52384.91;4986088;28;20254;-62
2021/05/19 02:35:40;;;;;;;15.23;11.97;;;;;;;-144.99;nan;52431.78;4990269;28;20227;-61
2021/05/19 02:38:06;;;;;;;13.57;12.13;;;;;;;-144.99;nan;52382.88;4989940;28;20223;-61
2021/05/19 02:40:35;;;;;;;13.83;12.33;;;;;;;-144.99;nan;52431.78;4990016;28;20215;-62
2021/05/19 02:43:04;;;;;;;12.53;11.23;;;;;;;-144.99;nan;52403.25;4991244;28;20199;-61
2021/05/19 02:45:30;;;;;;;13.57;12.10;;;;;;;-144.99;nan;52380.84;4986615;28;20199;-61
2021/05/19 02:47:56;;;;;;;14.30;12.03;;;;;;;-144.99;nan;52439.94;4990528;28;20223;-63
2021/05/19 02:50:23;;;;;;;15.97;11.83;;;;;;;-144.99;nan;52425.66;4990435;28;20214;-65
2021/05/19 02:52:49;;;;;;;12.50;11.13;;;;;;;-144.99;nan;52378.78;4988806;28;20585;-66
2021/05/19 02:55:17;;;;;;;13.70;11.60;;;;;;;-144.99;nan;52427.72;4986499;28;20227;-65
2021/05/19 02:57:46;;;;;;;15.03;11.60;;;;;;;-144.99;nan;52419.56;4989502;28;20235;-64
2021/05/19 03:00:16;;;;;;;15.77;13.70;;;;;;;-144.99;nan;52409.38;4990440;28;20204;-63
2021/05/19 03:02:42;;;;;;;14.63;12.80;;;;;;;-144.99;nan;52415.47;4989158;28;20219;-63
2021/05/19 03:05:16;;;;;;;16.20;12.37;;;;;;;-144.99;nan;52391.03;4989132;28;20262;-62
2021/05/19 03:07:45;;;;;;;13.67;11.60;;;;;;;-144.99;nan;52378.78;4989425;28;20329;-62
2021/05/19 03:10:14;;;;;;;14.57;11.53;;;;;;;-144.99;nan;52403.25;4988351;28;20218;-59
2021/05/19 03:12:43;;;;;;;15.23;12.60;;;;;;;-144.99;nan;52386.94;4989289;28;20654;-59
2021/05/19 03:15:13;;;;;;;12.93;10.63;;;;;;;-144.99;nan;52427.72;4988619;28;20203;-58
2021/05/19 03:17:39;;;;;;;14.27;11.33;;;;;;;-144.99;nan;52401.22;4988224;28;20223;-62
2021/05/19 03:20:09;;;;;;;14.70;11.80;;;;;;;-144.99;nan;52384.91;4990213;28;20211;-61
2021/05/19 03:22:36;;;;;;;19.57;12.40;;;;;;;-144.99;nan;52395.09;4989789;28;20212;-61
2021/05/19 03:25:03;;;;;;;14.03;11.63;;;;;;;-144.99;nan;52405.28;4988613;28;20271;-65
2021/05/19 03:27:29;;;;;;;13.83;10.97;;;;;;;-144.99;nan;52415.47;4989752;28;20250;-65
2021/05/19 03:29:55;;;;;;;13.43;10.67;;;;;;;-144.99;nan;52417.53;4989956;28;20203;-65
2021/05/19 03:32:21;;;;;;;10.97;9.73;;;;;;;-144.99;nan;52411.41;4989720;28;20227;-67
2021/05/19 03:34:47;;;;;;;13.30;11.90;;;;;;;-144.99;nan;52411.41;4989585;28;20207;-65
2021/05/19 03:37:19;;;;;;;15.83;12.00;;;;;;;-144.99;nan;52431.78;4988390;28;20596;-64
2021/05/19 03:39:49;;;;;;;14.47;10.77;;;;;;;-144.99;nan;52395.09;4989647;28;20259;-60
2021/05/19 03:42:15;;;;;;;13.23;11.37;;;;;;;-144.99;nan;52425.66;4989692;28;20215;-59
2021/05/19 03:44:44;;;;;;;12.23;10.97;;;;;;;-144.99;nan;52386.94;4989011;28;20214;-61
2021/05/19 03:47:10;;;;;;;16.83;12.70;;;;;;;-144.99;nan;52407.31;4988729;28;20223;-62
2021/05/19 03:49:39;;;;;;;13.13;10.60;;;;;;;-144.99;nan;52425.66;4990017;28;20207;-61
2021/05/19 03:52:05;;;;;;;14.10;11.93;;;;;;;-144.99;nan;52403.25;4989635;28;20203;-62
2021/05/19 03:54:34;;;;;;;14.03;11.30;;;;;;;-144.99;nan;52386.94;4989563;28;20211;-62
2021/05/19 03:57:01;;;;;;;12.50;10.80;;;;;;;-144.99;nan;52415.47;4984311;28;20285;-62
2021/05/19 03:59:30;;;;;;;13.60;11.43;;;;;;;-144.99;nan;52403.25;4989224;28;20584;-61
2021/05/19 04:01:56;;;;;;;15.43;11.53;;;;;;;-144.99;nan;52431.78;4989889;28;20195;-61
2021/05/19 04:04:22;;;;;;;12.97;10.87;;;;;;;-144.99;nan;52419.56;4989362;28;20234;-60
2021/05/19 04:06:51;;;;;;;13.17;11.77;;;;;;;-144.99;nan;52388.97;4985216;28;20223;-61
2021/05/19 04:09:23;;;;;;;14.40;11.80;;;;;;;-144.99;nan;52415.47;4987724;28;20216;-58
2021/05/19 04:11:52;;;;;;;13.43;11.77;;;;;;;-144.99;nan;52411.41;4989318;28;20214;-63
2021/05/19 04:14:19;;;;;;;15.17;12.93;;;;;;;-144.99;nan;52419.56;4989310;28;20207;-63
2021/05/19 04:16:45;;;;;;;13.90;12.37;;;;;;;-144.99;nan;52448.09;4987181;28;20686;-62
2021/05/19 04:19:12;;;;;;;14.43;12.90;;;;;;;-144.99;nan;52366.56;4984786;28;20215;-60
2021/05/19 04:21:44;;;;;;;12.47;11.10;;;;;;;-144.99;nan;52386.94;4988639;28;20214;-62
2021/05/19 04:24:12;;;;;;;12.53;10.40;;;;;;;-144.99;nan;52395.09;4988638;28;20227;-61
2021/05/19 04:26:44;;;;;;;13.30;11.90;;;;;;;-144.99;nan;52378.78;4989551;28;20232;-62
2021/05/19 04:29:10;;;;;;;15.33;10.23;;;;;;;-144.99;nan;52411.41;4991265;28;20741;-61
2021/05/19 04:31:40;;;;;;;12.47;8.90;;;;;;;-144.99;nan;52427.72;4993006;28;20238;-61
2021/05/19 04:34:06;;;;;;;10.90;8.93;;;;;;;-144.99;nan;52368.59;4995887;28;20664;-62
2021/05/19 04:36:35;;;;;;;13.67;12.23;;;;;;;-144.99;nan;52419.56;4994175;28;20754;-66
2021/05/19 04:39:04;;;;;;;13.00;9.70;;;;;;;-144.99;nan;52362.50;4992253;28;20234;-64
2021/05/19 04:41:33;;;;;;;12.40;11.03;;;;;;;-144.99;nan;52374.72;4993131;28;20207;-71
2021/05/19 04:44:01;;;;;;;13.67;11.17;;;;;;;-144.99;nan;52401.22;4992688;28;20553;-69
2021/05/19 04:46:30;;;;;;;15.23;11.90;;;;;;;-144.99;nan;52382.88;4993026;28;20235;-71
2021/05/19 04:49:03;;;;;;;19.53;12.67;;;;;;;-144.99;nan;52362.50;4992480;28;20555;-70
2021/05/19 04:51:29;;;;;;;13.43;11.83;;;;;;;-144.99;nan;52391.03;4990883;28;20208;-69
2021/05/19 04:54:01;;;;;;;11.80;10.47;;;;;;;-144.99;nan;52358.41;4998820;28;20542;-68
2021/05/19 04:56:30;;;;;;;15.13;12.17;;;;;;;-144.99;nan;52393.06;4992858;28;20282;-69
2021/05/19 04:58:59;;;;;;;12.63;11.13;;;;;;;-144.99;nan;52378.78;4992412;28;20207;-69
2021/05/19 05:01:31;;;;;;;14.40;12.43;;;;;;;-144.99;nan;52403.25;4992954;28;20207;-69
2021/05/19 05:04:03;;;;;;;16.33;12.30;;;;;;;-144.99;nan;52386.94;4992019;28;20251;-68
2021/05/19 05:06:29;;;;;;;12.77;11.47;;;;;;;-144.99;nan;52444.03;4991111;28;20314;-70
2021/05/19 05:08:55;;;;;;;12.77;11.47;;;;;;;-144.99;nan;52386.94;3959606;28;10000699;-68
2021/05/19 05:11:21;;;;;;;11.97;10.70;;;;;;;-144.99;nan;52374.72;4992887;28;20230;-68
2021/05/19 05:13:51;;;;;;;14.17;11.50;;;;;;;-144.99;nan;52386.94;4989261;28;20219;-68
2021/05/19 05:16:17;;;;;;;12.47;11.10;;;;;;;-144.99;nan;52360.44;4989042;28;20223;-68
2021/05/19 05:18:43;;;;;;;13.03;11.00;;;;;;;-144.99;nan;52391.03;4990243;28;20219;-68
2021/05/19 05:21:13;;;;;;;13.53;11.23;;;;;;;-144.99;nan;52391.03;4990106;28;20235;-70
2021/05/19 05:23:39;;;;;;;12.77;11.47;;;;;;;-144.99;nan;52407.31;4989900;28;20211;-68
2021/05/19 05:26:05;;;;;;;14.67;11.00;;;;;;;-144.99;nan;52380.84;4996941;28;20233;-68
2021/05/19 05:28:34;;;;;;;18.23;15.43;;;;;;;-144.99;nan;52374.72;4986601;28;20208;-70
2021/05/19 05:31:05;;;;;;;19.53;13.93;;;;;;;-144.99;nan;52340.06;4993627;28;20210;-69
2021/05/19 05:33:31;;;;;;;16.23;12.17;;;;;;;-144.99;nan;52370.63;4984839;28;20203;-70
2021/05/19 05:36:00;;;;;;;13.07;11.60;;;;;;;-144.99;nan;52366.56;4988056;28;20228;-68
2021/05/19 05:38:33;;;;;;;11.20;10.00;;;;;;;-144.99;nan;52354.34;4987296;28;20657;-68
2021/05/19 05:40:59;;;;;;;13.30;11.93;;;;;;;-144.99;nan;52358.41;4992713;28;20211;-69
2021/05/19 05:43:25;;;;;;;12.23;10.77;;;;;;;-144.99;nan;52366.56;5001412;28;20211;-69
2021/05/19 05:45:54;;;;;;;13.93;10.73;;;;;;;-144.99;nan;52395.09;4989033;28;20685;-69
2021/05/19 05:48:20;;;;;;;11.13;9.97;;;;;;;-144.99;nan;52407.31;4989221;28;20246;-69
2021/05/19 05:50:47;;;;;;;13.93;12.20;;;;;;;-144.99;nan;52329.88;4988874;28;20303;-69
2021/05/19 05:53:13;;;;;;;14.87;11.40;;;;;;;-144.99;nan;52362.50;4989027;28;20214;-69
2021/05/19 05:55:46;;;;;;;11.27;9.67;;;;;;;-144.99;nan;52346.19;4985991;28;20227;-67
2021/05/19 05:58:12;;;;;;;11.97;10.47;;;;;;;-144.99;nan;52350.25;4996527;28;20238;-70
2021/05/19 06:00:38;;;;;;;11.63;10.50;;;;;;;-144.99;nan;52342.09;4991409;28;20242;-69
2021/05/19 06:03:06;;;;;;;12.00;10.60;;;;;;;-144.99;nan;52380.84;4988580;28;20223;-71
2021/05/19 06:05:38;;;;;;;13.73;11.93;;;;;;;-144.99;nan;52366.56;4988897;28;20681;-69
2021/05/19 06:08:08;;;;;;;12.07;10.80;;;;;;;-144.99;nan;52362.50;4987319;28;20242;-70
2021/05/19 06:10:37;;;;;;;13.70;12.37;;;;;;;-144.99;nan;52354.34;4987461;28;20219;-70
2021/05/19 06:13:04;;;;;;;13.20;11.80;;;;;;;-144.99;nan;52342.09;4988846;28;20241;-69
2021/05/19 06:15:35;;;;;;;12.17;10.73;;;;;;;-144.99;nan;52348.22;4988257;28;20325;-69
2021/05/19 06:18:04;;;;;;;13.37;10.80;;;;;;;-144.99;nan;52313.56;4988597;28;20270;-68
2021/05/19 06:20:30;;;;;;;12.30;10.77;;;;;;;-144.99;nan;52303.38;4988526;28;20200;-69
2021/05/19 06:22:56;;;;;;;13.17;10.57;;;;;;;-144.99;nan;52333.94;4986709;28;20199;-68
2021/05/19 06:25:25;;;;;;;13.93;10.83;;;;;;;-144.99;nan;52338.03;4988737;28;20204;-69
2021/05/19 06:27:52;;;;;;;14.13;10.67;;;;;;;-144.99;nan;52301.34;4985530;28;20230;-72
2021/05/19 06:30:22;;;;;;;12.90;9.93;;;;;;;-144.99;nan;52340.06;4998059;28;20238;-69
2021/05/19 06:32:54;;;;;;;10.77;9.67;;;;;;;-144.99;nan;52297.25;4990470;28;20215;-69
2021/05/19 06:35:20;;;;;;;11.70;9.03;;;;;;;-144.99;nan;52327.84;4992448;28;20278;-68
2021/05/19 06:37:49;;;;;;;11.00;9.73;;;;;;;-144.99;nan;52340.06;4988957;28;20239;-69
2021/05/19 06:40:15;;;;;;;13.83;11.13;;;;;;;-144.99;nan;52319.69;4988419;28;20641;-70
2021/05/19 06:42:44;;;;;;;14.83;10.00;;;;;;;-144.99;nan;52297.25;4987549;28;20258;-68
2021/05/19 06:45:14;;;;;;;16.60;14.90;;;;;;;-144.99;nan;52354.34;4988084;28;20295;-69
2021/05/19 06:47:47;;;;;;;14.23;11.60;;;;;;;-144.99;nan;52256.50;4987465;28;20310;-69
2021/05/19 06:50:16;;;;;;;13.03;10.73;;;;;;;-144.99;nan;52319.69;4983149;28;20624;-68
2021/05/19 06:52:42;;;;;;;14.67;11.80;;;;;;;-144.99;nan;52346.19;4988579;28;20427;-69
2021/05/19 06:55:13;;;;;;;16.50;13.07;;;;;;;-144.99;nan;52346.19;4988511;28;20454;-70
2021/05/19 06:57:43;;;;;;;13.33;11.20;;;;;;;-144.99;nan;52331.91;4987079;28;20701;-69
2021/05/19 07:00:10;;;;;;;14.37;11.50;;;;;;;-144.99;nan;52329.88;4987978;28;20294;-69
2021/05/19 07:02:38;;;;;;;12.13;9.30;;;;;;;-144.99;nan;52362.50;4987569;28;20216;-69
2021/05/19 07:05:09;;;;;;;12.90;9.77;;;;;;;-144.99;nan;52386.94;4988219;28;20291;-70
2021/05/19 07:07:35;;;;;;;9.17;8.10;;;;;;;-144.99;nan;52325.81;4986966;28;20227;-68
2021/05/19 07:10:01;;;;;;;8.50;6.87;;;;;;;-144.99;nan;52309.50;4987136;28;20226;-69
2021/05/19 07:12:30;;;;;;;8.37;7.10;;;;;;;-144.99;nan;52317.66;4990961;28;20273;-70
2021/05/19 07:14:59;;;;;;;9.60;7.77;;;;;;;-144.99;nan;52311.53;4994108;28;20203;-69
2021/05/19 07:17:29;;;;;;;10.93;7.03;;;;;;;-144.99;nan;52313.56;4994457;28;20640;-67
2021/05/19 07:20:01;;;;;;;7.67;5.67;;;;;;;-144.99;nan;52317.66;4992564;28;20366;-68
2021/05/19 07:22:30;;;;;;;7.03;5.63;;;;;;;-144.99;nan;52280.97;4993376;28;20207;-70
2021/05/19 07:24:59;;;;;;;7.47;5.90;;;;;;;-144.99;nan;52297.25;4992698;28;20203;-70
2021/05/19 07:27:26;;;;;;;6.47;5.13;;;;;;;-144.99;nan;52329.88;4989663;28;20377;-68
2021/05/19 07:29:55;;;;;;;7.47;5.53;;;;;;;-144.99;nan;52354.34;4988522;28;20208;-68
2021/05/19 07:32:26;;;;;;;6.50;4.73;;;;;;;-144.99;nan;52313.56;4988051;28;20289;-69
2021/05/19 07:34:56;;;;;;;7.60;4.97;;;;;;;-144.99;nan;52285.03;4988242;28;20207;-67
2021/05/19 07:37:26;;;;;;;5.60;4.50;;;;;;;-144.99;nan;52342.09;4987184;28;20231;-67
2021/05/19 07:39:55;;;;;;;9.30;6.60;;;;;;;-144.99;nan;52338.03;4987675;28;20215;-68
2021/05/19 07:42:24;;;;;;;7.00;6.20;;;;;;;-144.99;nan;52327.84;4987285;28;20219;-69
2021/05/19 07:44:50;;;;;;;8.00;4.90;;;;;;;-144.99;nan;52276.88;4984141;28;20207;-68
2021/05/19 07:47:22;;;;;;;7.37;5.20;;;;;;;-144.99;nan;52305.41;4987203;28;20234;-69
2021/05/19 07:49:48;;;;;;;6.77;4.40;;;;;;;-144.99;nan;52293.19;4984857;28;20216;-68
2021/05/19 07:52:14;;;;;;;5.83;3.73;;;;;;;-144.99;nan;52264.66;4987171;28;20760;-68
2021/05/19 07:54:40;;;;;;;4.90;4.00;;;;;;;-144.99;nan;52305.41;4986538;28;20222;-69
2021/05/19 07:57:16;;;;;;;4.70;4.00;;;;;;;-144.99;nan;52309.50;4986960;28;20232;-67
2021/05/19 07:59:49;;;;;;;5.90;3.67;;;;;;;-144.99;nan;52289.13;4987654;28;20204;-68
2021/05/19 08:02:16;;;;;;;6.67;4.87;;;;;;;-144.99;nan;52285.03;4989145;28;20292;-70
2021/05/19 08:04:47;;;;;;;7.57;4.47;;;;;;;-144.99;nan;52313.56;4992169;28;20216;-69
2021/05/19 08:07:13;;;;;;;7.23;4.00;;;;;;;-144.99;nan;52305.41;4991326;28;20225;-71
2021/05/19 08:09:39;;;;;;;5.37;4.43;;;;;;;-144.99;nan;52301.34;4987650;28;20600;-71
2021/05/19 08:12:12;;;;;;;6.93;3.87;;;;;;;-144.99;nan;52305.41;4992703;28;20215;-69
2021/05/19 08:14:38;;;;;;;4.47;3.97;;;;;;;-144.99;nan;52319.69;4997731;28;20237;-68
2021/05/19 08:17:07;;;;;;;7.00;3.93;;;;;;;-144.99;nan;52350.25;4991754;28;20227;-70
2021/05/19 08:19:39;;;;;;;5.97;3.73;;;;;;;-144.99;nan;52338.03;4994186;28;20329;-68
2021/05/19 08:22:12;;;;;;;9.80;5.07;;;;;;;-144.99;nan;52289.13;4991303;28;20214;-68
2021/05/19 08:24:42;;;;;;;11.03;5.27;;;;;;;-144.99;nan;52297.25;4991060;28;20218;-70
2021/05/19 08:27:09;;;;;;;6.87;5.30;;;;;;;-144.99;nan;52321.72;4990739;28;20267;-68
2021/05/19 08:29:36;;;;;;;8.00;4.30;;;;;;;-144.99;nan;52285.03;4989990;28;20745;-69
2021/05/19 08:32:06;;;;;;;9.67;6.43;;;;;;;-144.99;nan;52297.25;4988764;28;20203;-69
2021/05/19 08:34:32;;;;;;;8.10;5.53;;;;;;;-144.99;nan;52342.09;4991042;28;20234;-68
2021/05/19 08:37:04;;;;;;;7.17;5.33;;;;;;;-144.99;nan;52299.31;4990247;28;20246;-69
2021/05/19 08:39:33;;;;;;;7.00;5.30;;;;;;;-144.99;nan;52276.88;4990563;28;20219;-68
2021/05/19 08:42:04;;;;;;;7.50;5.50;;;;;;;-144.99;nan;52346.19;4990463;28;20706;-69
2021/05/19 08:44:34;;;;;;;8.87;5.33;;;;;;;-144.99;nan;52319.69;4990194;28;20207;-68
2021/05/19 08:47:00;;;;;;;8.67;4.80;;;;;;;-144.99;nan;52268.72;4989827;28;20785;-67
2021/05/19 08:49:30;;;;;;;8.33;5.00;;;;;;;-144.99;nan;52313.56;4990578;28;20297;-67
2021/05/19 08:51:56;;;;;;;7.27;5.90;;;;;;;-144.99;nan;52321.72;4990669;28;20211;-67
2021/05/19 08:54:25;;;;;;;8.93;6.80;;;;;;;-144.99;nan;52338.03;4991310;28;20725;-70
2021/05/19 08:56:52;;;;;;;7.03;5.53;;;;;;;-144.99;nan;52321.72;4982941;28;20238;-68
2021/05/19 08:59:19;;;;;;;9.40;6.03;;;;;;;-144.99;nan;52289.13;4990246;28;20222;-68
2021/05/19 09:01:49;;;;;;;9.63;5.83;;;;;;;-144.99;nan;52305.41;4990067;28;20219;-68
2021/05/19 09:04:20;;;;;;;6.73;5.07;;;;;;;-144.99;nan;52256.50;4990290;28;20621;-68
2021/05/19 09:06:52;;;;;;;6.23;4.40;;;;;;;-144.99;nan;52270.78;4989936;28;20227;-69
2021/05/19 09:09:29;;;;;;;7.60;5.43;;;;;;;-144.99;nan;52309.50;4989378;28;20219;-68
2021/05/19 09:12:02;;;;;;;8.70;4.30;;;;;;;-144.99;nan;52313.56;4989946;28;20207;-69
2021/05/19 09:14:31;;;;;;;7.83;5.20;;;;;;;-144.99;nan;52321.72;4988656;28;20215;-68
2021/05/19 09:17:18;;;;;;;6.07;4.57;;;;;;;-144.99;nan;52266.69;4990137;28;20613;-68
2021/05/19 09:19:48;;;;;;;6.50;3.80;;;;;;;-144.99;nan;52289.13;4990641;28;20245;-69
2021/05/19 09:22:19;;;;;;;7.17;4.40;;;;;;;-144.99;nan;52264.66;4990801;28;20672;-69
2021/05/19 09:24:46;;;;;;;7.23;4.13;;;;;;;-144.99;nan;52264.66;4989867;28;20225;-68
2021/05/19 09:27:18;;;;;;;6.50;4.27;;;;;;;-144.99;nan;52244.28;4990489;28;20243;-70
2021/05/19 09:29:52;;;;;;;8.43;4.07;;;;;;;-144.99;nan;52264.66;4990654;28;20559;-68
2021/05/19 09:32:21;;;;;;;7.47;4.63;;;;;;;-144.99;nan;52244.28;4989947;28;20215;-68
2021/05/19 09:34:53;;;;;;;7.33;3.70;;;;;;;-144.99;nan;52295.22;4989923;28;20211;-68
2021/05/19 09:37:23;;;;;;;7.80;4.10;;;;;;;-144.99;nan;52278.91;4989130;28;20241;-68
2021/05/19 09:39:52;;;;;;;7.97;3.57;;;;;;;-144.99;nan;52256.50;4989556;28;20239;-70
2021/05/19 09:42:20;;;;;;;7.93;4.13;;;;;;;-144.99;nan;52268.72;4990046;28;20212;-68
2021/05/19 09:44:48;;;;;;;7.83;3.53;;;;;;;-144.99;nan;52219.81;4990170;28;20207;-68
2021/05/19 09:47:39;;;;;;;6.03;3.80;;;;;;;-144.99;nan;52264.66;4989635;28;20227;-68
2021/05/19 09:50:10;;;;;;;6.17;4.07;;;;;;;-144.99;nan;52276.88;4990225;28;20744;-68
2021/05/19 09:52:37;;;;;;;6.37;3.27;;;;;;;-144.99;nan;52297.25;4989683;28;20222;-68
2021/05/19 09:55:09;;;;;;;7.90;4.67;;;;;;;-144.99;nan;52232.03;4989744;28;20204;-68
2021/05/19 09:57:45;;;;;;;4.90;3.40;;;;;;;-144.99;nan;52285.03;4988626;28;20284;-70
2021/05/19 10:00:13;;;;;;;5.23;3.57;;;;;;;-144.99;nan;52236.13;4989442;28;20217;-68
2021/05/19 10:02:44;;;;;;;6.57;3.90;;;;;;;-144.99;nan;52276.88;4988938;28;20219;-67
2021/05/19 10:05:16;;;;;;;6.17;3.60;;;;;;;-144.99;nan;52215.75;4989617;28;20697;-68
2021/05/19 10:07:48;;;;;;;7.87;3.83;;;;;;;-144.99;nan;52187.19;4989163;28;20319;-68
2021/05/19 10:10:14;;;;;;;6.60;3.23;;;;;;;-144.99;nan;52217.78;4984733;28;20544;-67
2021/05/19 10:12:41;;;;;;;4.97;3.47;;;;;;;-144.99;nan;52325.81;4988735;28;20253;-69
2021/05/19 10:15:13;;;;;;;5.77;3.20;;;;;;;-144.99;nan;52215.75;4989200;28;20215;-67
2021/05/19 10:17:43;;;;;;;4.20;2.73;;;;;;;-144.99;nan;52227.97;4989122;28;20444;-69
2021/05/19 10:20:17;;;;;;;6.30;3.67;;;;;;;-144.99;nan;52276.88;4988969;28;20683;-68
2021/05/19 10:22:48;;;;;;;4.03;2.43;;;;;;;-144.99;nan;52203.50;4988577;28;20836;-68
2021/05/19 10:25:37;;;;;;;3.30;2.33;;;;;;;-144.99;nan;52179.06;4989286;28;20235;-69
2021/05/19 10:28:06;;;;;;;4.87;2.73;;;;;;;-144.99;nan;52240.19;4986444;28;20232;-70
2021/05/19 10:30:44;;;;;;;8.00;2.83;;;;;;;-144.99;nan;52232.03;4990888;28;20223;-71
2021/05/19 10:33:47;;;;;;;5.50;3.47;;;;;;;-144.99;nan;52254.47;4987065;28;20644;-67
2021/05/19 10:36:42;;;;;;;6.33;3.07;;;;;;;-144.99;nan;52256.50;4987204;28;20223;-69
2021/05/19 10:39:25;;;;;;;5.83;3.70;;;;;;;-144.99;nan;52260.56;4985523;28;20315;-70
2021/05/19 10:41:57;;;;;;;7.23;3.47;;;;;;;-144.99;nan;52179.06;4982216;28;20219;-69
2021/05/19 10:44:31;;;;;;;3.10;2.43;;;;;;;-144.99;nan;52185.16;4989093;28;20231;-69
2021/05/19 10:47:05;;;;;;;3.33;2.60;;;;;;;-144.99;nan;52223.88;4988642;28;20219;-69
2021/05/19 10:58:49;;;;;;;1.90;1.67;;;;;;;-144.99;nan;52248.34;4988925;28;20226;-69
2021/05/19 11:01:15;;;;;;;2.53;1.67;;;;;;;-144.99;nan;52248.34;4984701;28;20271;-70
2021/05/19 11:04:12;;;;;;;5.50;2.00;;;;;;;-144.99;nan;52250.38;4989185;28;20570;-69
2021/05/19 11:07:14;;;;;;;6.00;2.60;;;;;;;-144.99;nan;52236.13;4987545;28;20238;-69
2021/05/19 11:09:41;;;;;;;6.73;2.83;;;;;;;-144.99;nan;52162.75;4983449;28;20274;-69
2021/05/19 11:12:39;;;;;;;5.43;2.07;;;;;;;-144.99;nan;52215.75;4988000;28;20638;-68
2021/05/19 11:15:53;;;;;;;3.10;2.20;;;;;;;-144.99;nan;52223.88;4983334;28;20582;-68
2021/05/19 11:18:30;;;;;;;7.27;2.23;;;;;;;-144.99;nan;52264.66;4987125;28;20755;-67
2021/05/19 11:21:01;;;;;;;3.77;1.80;;;;;;;-144.99;nan;52323.75;4981957;28;20207;-70
2021/05/19 11:23:31;;;;;;;2.90;1.90;;;;;;;-144.99;nan;52177.00;4988548;28;20230;-72
2021/05/19 11:26:13;;;;;;;2.47;2.00;;;;;;;-144.99;nan;52187.19;4989457;28;20224;-69
2021/05/19 11:28:44;;;;;;;4.80;1.80;;;;;;;-144.99;nan;52258.53;4986652;28;20213;-68
2021/05/19 11:31:12;;;;;;;3.30;1.60;;;;;;;-144.99;nan;52252.44;4990280;28;20209;-70
2021/05/19 11:33:52;;;;;;;4.77;2.07;;;;;;;-144.99;nan;52276.88;4997991;28;20213;-69
2021/05/19 11:36:40;;;;;;;3.57;2.37;;;;;;;-144.99;nan;52309.50;5002829;28;20231;-70
2021/05/19 11:39:27;;;;;;;2.80;1.80;;;;;;;-144.99;nan;52268.72;4997045;28;20744;-69
2021/05/19 11:42:08;;;;;;;5.20;1.67;;;;;;;-144.99;nan;52183.13;4990141;28;20218;-69
2021/05/19 11:44:39;;;;;;;2.27;1.53;;;;;;;-144.99;nan;52170.91;4995500;28;20217;-68
2021/05/19 11:47:09;;;;;;;4.40;1.47;;;;;;;-144.99;nan;52117.91;4995097;28;20232;-69
2021/05/19 11:49:41;;;;;;;5.13;2.57;;;;;;;-144.99;nan;52225.94;4993130;28;20387;-68